Allen, Alabama
Current Conditions -  °F | °C
As of 11:53 AM on Sunday 25 Jan 2015 (Local Time) from KGZH Reporting Station
Light Rain Light Rain  
Wind Chill: 61°   Ceiling: Unl
Heat Index: 61°   Visibility: 10mi
Dew Point: 37°   Wind: 18mph
Humidity: 41%   Direction: 210°SSW
Pressure: 29.93"   Gusts: 26mph
Location:  31.6°N, 87.71°W
Report Text: KGZH 251753Z AUTO 21016G23KT 10SM -RA CLR 16/03 A2993 RMK AO2 RAB1655 SLP136 P0000 60000 T01610028 10161 21017 58027
Loading
Personal Weather Stations






























Interactive Weather Map New forecast layout! Learn more

10-Day Weather Forecast

Advertisements
Track Severe Weather on mobile